sensor_id;sensor_type;location;lat;lon;timestamp;P1;durP1;ratioP1;P2;durP2;ratioP2
14076;SDS011;7114;51.100;13.998;2022-12-29T00:01:20;5.20;;;0.90;;
14076;SDS011;7114;51.100;13.998;2022-12-29T00:03:48;5.73;;;1.10;;
14076;SDS011;7114;51.100;13.998;2022-12-29T00:06:14;5.75;;;0.98;;
14076;SDS011;7114;51.100;13.998;2022-12-29T00:08:40;5.47;;;0.80;;
14076;SDS011;7114;51.100;13.998;2022-12-29T00:11:07;5.47;;;0.82;;
14076;SDS011;7114;51.100;13.998;2022-12-29T00:13:33;6.10;;;1.02;;
14076;SDS011;7114;51.100;13.998;2022-12-29T00:16:17;5.20;;;0.90;;
14076;SDS011;7114;51.100;13.998;2022-12-29T00:18:43;6.53;;;0.93;;
14076;SDS011;7114;51.100;13.998;2022-12-29T00:21:11;4.63;;;0.70;;
14076;SDS011;7114;51.100;13.998;2022-12-29T00:23:57;4.40;;;0.63;;
14076;SDS011;7114;51.100;13.998;2022-12-29T00:26:41;5.45;;;0.80;;
14076;SDS011;7114;51.100;13.998;2022-12-29T00:29:25;5.13;;;0.90;;
14076;SDS011;7114;51.100;13.998;2022-12-29T00:32:09;5.72;;;0.73;;
14076;SDS011;7114;51.100;13.998;2022-12-29T00:34:53;4.60;;;0.70;;
14076;SDS011;7114;51.100;13.998;2022-12-29T00:37:36;4.65;;;0.80;;
14076;SDS011;7114;51.100;13.998;2022-12-29T00:40:20;4.60;;;0.60;;
14076;SDS011;7114;51.100;13.998;2022-12-29T00:43:19;4.97;;;0.80;;
14076;SDS011;7114;51.100;13.998;2022-12-29T00:46:02;4.40;;;0.65;;
14076;SDS011;7114;51.100;13.998;2022-12-29T00:48:29;4.70;;;0.60;;
14076;SDS011;7114;51.100;13.998;2022-12-29T00:51:15;5.43;;;0.70;;
14076;SDS011;7114;51.100;13.998;2022-12-29T00:53:42;5.45;;;0.80;;
14076;SDS011;7114;51.100;13.998;2022-12-29T00:56:09;5.70;;;0.80;;
14076;SDS011;7114;51.100;13.998;2022-12-29T00:58:35;4.70;;;0.85;;
14076;SDS011;7114;51.100;13.998;2022-12-29T01:01:01;4.10;;;0.60;;
14076;SDS011;7114;51.100;13.998;2022-12-29T01:03:28;5.22;;;0.70;;
14076;SDS011;7114;51.100;13.998;2022-12-29T01:05:54;4.47;;;0.70;;
14076;SDS011;7114;51.100;13.998;2022-12-29T01:08:20;4.60;;;0.70;;
14076;SDS011;7114;51.100;13.998;2022-12-29T01:10:48;4.30;;;0.55;;
14076;SDS011;7114;51.100;13.998;2022-12-29T01:13:22;5.50;;;0.82;;
14076;SDS011;7114;51.100;13.998;2022-12-29T01:15:49;5.43;;;0.70;;
14076;SDS011;7114;51.100;13.998;2022-12-29T01:18:16;5.18;;;0.70;;
14076;SDS011;7114;51.100;13.998;2022-12-29T01:20:42;4.90;;;0.63;;
14076;SDS011;7114;51.100;13.998;2022-12-29T01:23:08;4.85;;;0.85;;
14076;SDS011;7114;51.100;13.998;2022-12-29T01:25:34;5.50;;;0.88;;
14076;SDS011;7114;51.100;13.998;2022-12-29T01:28:02;7.45;;;1.00;;
14076;SDS011;7114;51.100;13.998;2022-12-29T01:30:29;5.75;;;0.95;;
14076;SDS011;7114;51.100;13.998;2022-12-29T01:32:55;5.70;;;0.93;;
14076;SDS011;7114;51.100;13.998;2022-12-29T01:35:21;5.97;;;1.08;;
14076;SDS011;7114;51.100;13.998;2022-12-29T01:37:47;7.07;;;0.70;;
14076;SDS011;7114;51.100;13.998;2022-12-29T01:40:14;5.63;;;0.70;;
14076;SDS011;7114;51.100;13.998;2022-12-29T01:42:40;5.43;;;0.95;;
14076;SDS011;7114;51.100;13.998;2022-12-29T01:45:09;5.60;;;0.80;;
14076;SDS011;7114;51.100;13.998;2022-12-29T01:47:38;6.45;;;1.10;;
14076;SDS011;7114;51.100;13.998;2022-12-29T01:50:06;4.57;;;0.90;;
14076;SDS011;7114;51.100;13.998;2022-12-29T01:52:36;4.75;;;0.68;;
14076;SDS011;7114;51.100;13.998;2022-12-29T01:55:06;5.43;;;0.90;;
14076;SDS011;7114;51.100;13.998;2022-12-29T01:57:34;5.50;;;0.97;;
14076;SDS011;7114;51.100;13.998;2022-12-29T02:00:04;6.03;;;1.10;;
14076;SDS011;7114;51.100;13.998;2022-12-29T02:02:34;7.13;;;0.90;;
14076;SDS011;7114;51.100;13.998;2022-12-29T02:05:01;4.70;;;0.80;;
14076;SDS011;7114;51.100;13.998;2022-12-29T02:07:31;4.70;;;0.60;;
14076;SDS011;7114;51.100;13.998;2022-12-29T02:09:58;7.10;;;1.10;;
14076;SDS011;7114;51.100;13.998;2022-12-29T02:12:26;7.13;;;1.70;;
14076;SDS011;7114;51.100;13.998;2022-12-29T02:14:53;6.65;;;0.85;;
14076;SDS011;7114;51.100;13.998;2022-12-29T02:17:24;5.40;;;0.98;;
14076;SDS011;7114;51.100;13.998;2022-12-29T02:20:07;7.22;;;1.10;;
14076;SDS011;7114;51.100;13.998;2022-12-29T02:22:41;5.53;;;1.03;;
14076;SDS011;7114;51.100;13.998;2022-12-29T02:25:18;6.90;;;1.00;;
14076;SDS011;7114;51.100;13.998;2022-12-29T02:28:07;5.25;;;0.98;;
14076;SDS011;7114;51.100;13.998;2022-12-29T02:30:50;6.95;;;1.27;;
14076;SDS011;7114;51.100;13.998;2022-12-29T02:33:23;6.70;;;1.00;;
14076;SDS011;7114;51.100;13.998;2022-12-29T02:36:01;5.70;;;1.40;;
14076;SDS011;7114;51.100;13.998;2022-12-29T02:38:38;6.18;;;1.25;;
14076;SDS011;7114;51.100;13.998;2022-12-29T02:41:13;6.20;;;1.02;;
14076;SDS011;7114;51.100;13.998;2022-12-29T02:43:47;4.68;;;0.88;;
14076;SDS011;7114;51.100;13.998;2022-12-29T02:46:18;5.60;;;1.00;;
14076;SDS011;7114;51.100;13.998;2022-12-29T02:48:47;5.73;;;1.10;;
14076;SDS011;7114;51.100;13.998;2022-12-29T02:51:19;5.22;;;0.98;;
14076;SDS011;7114;51.100;13.998;2022-12-29T02:53:47;5.20;;;1.15;;
14076;SDS011;7114;51.100;13.998;2022-12-29T02:56:31;5.60;;;1.02;;
14076;SDS011;7114;51.100;13.998;2022-12-29T02:58:58;5.55;;;1.00;;
14076;SDS011;7114;51.100;13.998;2022-12-29T03:01:29;4.70;;;0.70;;
14076;SDS011;7114;51.100;13.998;2022-12-29T03:04:18;6.18;;;0.93;;
14076;SDS011;7114;51.100;13.998;2022-12-29T03:06:52;5.60;;;0.90;;
14076;SDS011;7114;51.100;13.998;2022-12-29T03:09:26;5.40;;;0.90;;
14076;SDS011;7114;51.100;13.998;2022-12-29T03:12:02;5.68;;;1.00;;
14076;SDS011;7114;51.100;13.998;2022-12-29T03:14:35;5.40;;;0.90;;
14076;SDS011;7114;51.100;13.998;2022-12-29T03:17:26;4.70;;;0.85;;
14076;SDS011;7114;51.100;13.998;2022-12-29T03:19:56;5.75;;;1.00;;
14076;SDS011;7114;51.100;13.998;2022-12-29T03:22:28;5.55;;;0.95;;
14076;SDS011;7114;51.100;13.998;2022-12-29T03:24:57;6.13;;;1.00;;
14076;SDS011;7114;51.100;13.998;2022-12-29T03:27:27;5.17;;;1.00;;
14076;SDS011;7114;51.100;13.998;2022-12-29T03:29:57;5.45;;;0.90;;
14076;SDS011;7114;51.100;13.998;2022-12-29T03:32:27;5.43;;;0.85;;
14076;SDS011;7114;51.100;13.998;2022-12-29T03:34:57;4.57;;;0.82;;
14076;SDS011;7114;51.100;13.998;2022-12-29T03:37:25;6.78;;;0.90;;
14076;SDS011;7114;51.100;13.998;2022-12-29T03:39:53;6.33;;;0.90;;
14076;SDS011;7114;51.100;13.998;2022-12-29T03:42:21;5.07;;;0.90;;
14076;SDS011;7114;51.100;13.998;2022-12-29T03:44:52;5.60;;;1.08;;
14076;SDS011;7114;51.100;13.998;2022-12-29T03:47:19;5.97;;;0.95;;
14076;SDS011;7114;51.100;13.998;2022-12-29T03:49:47;5.20;;;1.05;;
14076;SDS011;7114;51.100;13.998;2022-12-29T03:52:14;4.80;;;0.83;;
14076;SDS011;7114;51.100;13.998;2022-12-29T03:54:40;5.82;;;1.05;;
14076;SDS011;7114;51.100;13.998;2022-12-29T03:57:07;5.50;;;1.05;;
14076;SDS011;7114;51.100;13.998;2022-12-29T03:59:34;4.72;;;1.00;;
14076;SDS011;7114;51.100;13.998;2022-12-29T04:02:00;5.85;;;1.10;;
14076;SDS011;7114;51.100;13.998;2022-12-29T04:04:26;5.07;;;0.90;;
14076;SDS011;7114;51.100;13.998;2022-12-29T04:06:54;4.90;;;0.82;;
14076;SDS011;7114;51.100;13.998;2022-12-29T04:09:20;6.53;;;0.90;;
14076;SDS011;7114;51.100;13.998;2022-12-29T04:11:46;4.72;;;0.90;;
14076;SDS011;7114;51.100;13.998;2022-12-29T04:14:12;5.07;;;0.70;;
14076;SDS011;7114;51.100;13.998;2022-12-29T04:16:39;7.23;;;1.30;;
14076;SDS011;7114;51.100;13.998;2022-12-29T04:19:06;5.53;;;0.93;;
14076;SDS011;7114;51.100;13.998;2022-12-29T04:21:33;5.18;;;0.90;;
14076;SDS011;7114;51.100;13.998;2022-12-29T04:24:00;5.38;;;1.20;;
14076;SDS011;7114;51.100;13.998;2022-12-29T04:26:27;4.80;;;0.88;;
14076;SDS011;7114;51.100;13.998;2022-12-29T04:28:53;5.50;;;0.97;;
14076;SDS011;7114;51.100;13.998;2022-12-29T04:31:19;5.45;;;0.98;;
14076;SDS011;7114;51.100;13.998;2022-12-29T04:33:45;5.22;;;1.00;;
14076;SDS011;7114;51.100;13.998;2022-12-29T04:36:12;6.18;;;1.13;;
14076;SDS011;7114;51.100;13.998;2022-12-29T04:38:38;5.80;;;1.10;;
14076;SDS011;7114;51.100;13.998;2022-12-29T04:41:07;6.13;;;1.10;;
14076;SDS011;7114;51.100;13.998;2022-12-29T04:43:33;5.05;;;1.00;;
14076;SDS011;7114;51.100;13.998;2022-12-29T04:45:59;5.40;;;1.05;;
14076;SDS011;7114;51.100;13.998;2022-12-29T04:48:25;5.70;;;1.20;;
14076;SDS011;7114;51.100;13.998;2022-12-29T04:50:52;6.40;;;1.20;;
14076;SDS011;7114;51.100;13.998;2022-12-29T04:53:18;5.90;;;0.80;;
14076;SDS011;7114;51.100;13.998;2022-12-29T04:55:47;5.85;;;1.10;;
14076;SDS011;7114;51.100;13.998;2022-12-29T04:58:16;4.82;;;0.85;;
14076;SDS011;7114;51.100;13.998;2022-12-29T05:00:42;5.60;;;1.08;;
14076;SDS011;7114;51.100;13.998;2022-12-29T05:03:08;5.95;;;1.10;;
14076;SDS011;7114;51.100;13.998;2022-12-29T05:05:38;6.33;;;1.20;;
14076;SDS011;7114;51.100;13.998;2022-12-29T05:08:04;5.95;;;1.10;;
14076;SDS011;7114;51.100;13.998;2022-12-29T05:10:31;5.28;;;0.90;;
14076;SDS011;7114;51.100;13.998;2022-12-29T05:12:57;5.70;;;1.15;;
14076;SDS011;7114;51.100;13.998;2022-12-29T05:15:25;5.80;;;0.93;;
14076;SDS011;7114;51.100;13.998;2022-12-29T05:17:51;5.63;;;0.80;;
14076;SDS011;7114;51.100;13.998;2022-12-29T05:20:17;6.18;;;1.40;;
14076;SDS011;7114;51.100;13.998;2022-12-29T05:22:44;5.78;;;1.30;;
14076;SDS011;7114;51.100;13.998;2022-12-29T05:25:10;5.15;;;1.00;;
14076;SDS011;7114;51.100;13.998;2022-12-29T05:27:36;6.00;;;1.20;;
14076;SDS011;7114;51.100;13.998;2022-12-29T05:30:03;5.60;;;1.00;;
14076;SDS011;7114;51.100;13.998;2022-12-29T05:32:31;6.07;;;1.05;;
14076;SDS011;7114;51.100;13.998;2022-12-29T05:34:57;5.65;;;1.25;;
14076;SDS011;7114;51.100;13.998;2022-12-29T05:37:24;7.07;;;1.40;;
14076;SDS011;7114;51.100;13.998;2022-12-29T05:39:50;6.38;;;1.50;;
14076;SDS011;7114;51.100;13.998;2022-12-29T05:42:16;6.63;;;1.40;;
14076;SDS011;7114;51.100;13.998;2022-12-29T05:44:42;6.88;;;1.42;;
14076;SDS011;7114;51.100;13.998;2022-12-29T05:47:09;6.18;;;1.23;;
14076;SDS011;7114;51.100;13.998;2022-12-29T05:49:36;6.40;;;1.60;;
14076;SDS011;7114;51.100;13.998;2022-12-29T05:52:03;6.68;;;1.30;;
14076;SDS011;7114;51.100;13.998;2022-12-29T05:54:29;7.67;;;1.70;;
14076;SDS011;7114;51.100;13.998;2022-12-29T05:56:55;6.57;;;1.40;;
14076;SDS011;7114;51.100;13.998;2022-12-29T05:59:22;6.63;;;1.65;;
14076;SDS011;7114;51.100;13.998;2022-12-29T06:01:48;6.68;;;1.70;;
14076;SDS011;7114;51.100;13.998;2022-12-29T06:04:14;6.90;;;1.67;;
14076;SDS011;7114;51.100;13.998;2022-12-29T06:06:42;6.87;;;1.67;;
14076;SDS011;7114;51.100;13.998;2022-12-29T06:09:09;8.25;;;2.10;;
14076;SDS011;7114;51.100;13.998;2022-12-29T06:11:35;7.78;;;1.90;;
14076;SDS011;7114;51.100;13.998;2022-12-29T06:14:02;8.32;;;2.03;;
14076;SDS011;7114;51.100;13.998;2022-12-29T06:16:28;7.30;;;1.88;;
14076;SDS011;7114;51.100;13.998;2022-12-29T06:18:54;6.90;;;1.53;;
14076;SDS011;7114;51.100;13.998;2022-12-29T06:21:21;8.20;;;1.70;;
14076;SDS011;7114;51.100;13.998;2022-12-29T06:23:48;6.65;;;1.52;;
14076;SDS011;7114;51.100;13.998;2022-12-29T06:26:15;6.80;;;1.75;;
14076;SDS011;7114;51.100;13.998;2022-12-29T06:28:41;6.55;;;1.50;;
14076;SDS011;7114;51.100;13.998;2022-12-29T06:31:08;6.90;;;1.60;;
14076;SDS011;7114;51.100;13.998;2022-12-29T06:33:35;7.43;;;1.58;;
14076;SDS011;7114;51.100;13.998;2022-12-29T06:36:01;6.93;;;1.50;;
14076;SDS011;7114;51.100;13.998;2022-12-29T06:38:27;7.53;;;1.60;;
14076;SDS011;7114;51.100;13.998;2022-12-29T06:40:55;6.20;;;1.60;;
14076;SDS011;7114;51.100;13.998;2022-12-29T06:43:21;7.03;;;1.40;;
14076;SDS011;7114;51.100;13.998;2022-12-29T06:45:47;5.63;;;1.42;;
14076;SDS011;7114;51.100;13.998;2022-12-29T06:48:13;6.65;;;1.50;;
14076;SDS011;7114;51.100;13.998;2022-12-29T06:50:40;6.68;;;1.40;;
14076;SDS011;7114;51.100;13.998;2022-12-29T06:53:06;6.88;;;1.70;;
14076;SDS011;7114;51.100;13.998;2022-12-29T06:55:33;6.97;;;1.37;;
14076;SDS011;7114;51.100;13.998;2022-12-29T06:58:00;7.85;;;1.40;;
14076;SDS011;7114;51.100;13.998;2022-12-29T07:00:26;6.85;;;1.60;;
14076;SDS011;7114;51.100;13.998;2022-12-29T07:02:54;7.57;;;1.63;;
14076;SDS011;7114;51.100;13.998;2022-12-29T07:05:20;6.10;;;1.42;;
14076;SDS011;7114;51.100;13.998;2022-12-29T07:07:47;5.50;;;1.40;;
14076;SDS011;7114;51.100;13.998;2022-12-29T07:10:13;6.35;;;1.55;;
14076;SDS011;7114;51.100;13.998;2022-12-29T07:12:39;8.63;;;1.50;;
14076;SDS011;7114;51.100;13.998;2022-12-29T07:15:07;7.07;;;1.80;;
14076;SDS011;7114;51.100;13.998;2022-12-29T07:17:34;6.28;;;1.60;;
14076;SDS011;7114;51.100;13.998;2022-12-29T07:20:00;7.00;;;1.33;;
14076;SDS011;7114;51.100;13.998;2022-12-29T07:22:27;7.55;;;1.65;;
14076;SDS011;7114;51.100;13.998;2022-12-29T07:24:53;7.32;;;1.55;;
14076;SDS011;7114;51.100;13.998;2022-12-29T07:27:19;7.30;;;1.48;;
14076;SDS011;7114;51.100;13.998;2022-12-29T07:29:45;5.80;;;1.40;;
14076;SDS011;7114;51.100;13.998;2022-12-29T07:32:13;5.80;;;1.37;;
14076;SDS011;7114;51.100;13.998;2022-12-29T07:34:39;7.13;;;1.40;;
14076;SDS011;7114;51.100;13.998;2022-12-29T07:37:05;6.65;;;1.50;;
14076;SDS011;7114;51.100;13.998;2022-12-29T07:39:32;6.68;;;1.58;;
14076;SDS011;7114;51.100;13.998;2022-12-29T07:41:58;6.97;;;1.50;;
14076;SDS011;7114;51.100;13.998;2022-12-29T07:44:24;6.97;;;1.50;;
14076;SDS011;7114;51.100;13.998;2022-12-29T07:46:50;6.25;;;1.35;;
14076;SDS011;7114;51.100;13.998;2022-12-29T07:49:18;6.20;;;1.20;;
14076;SDS011;7114;51.100;13.998;2022-12-29T07:51:44;6.40;;;1.55;;
14076;SDS011;7114;51.100;13.998;2022-12-29T07:54:11;5.53;;;1.15;;
14076;SDS011;7114;51.100;13.998;2022-12-29T07:56:37;7.33;;;1.57;;
14076;SDS011;7114;51.100;13.998;2022-12-29T07:59:04;6.57;;;1.30;;
14076;SDS011;7114;51.100;13.998;2022-12-29T08:01:30;6.07;;;1.67;;
14076;SDS011;7114;51.100;13.998;2022-12-29T08:03:56;6.13;;;1.48;;
14076;SDS011;7114;51.100;13.998;2022-12-29T08:06:24;7.22;;;1.65;;
14076;SDS011;7114;51.100;13.998;2022-12-29T08:08:50;6.83;;;1.80;;
14076;SDS011;7114;51.100;13.998;2022-12-29T08:11:16;7.35;;;1.55;;
14076;SDS011;7114;51.100;13.998;2022-12-29T08:13:43;6.88;;;1.50;;
14076;SDS011;7114;51.100;13.998;2022-12-29T08:16:09;5.72;;;1.45;;
14076;SDS011;7114;51.100;13.998;2022-12-29T08:18:35;6.07;;;1.48;;
14076;SDS011;7114;51.100;13.998;2022-12-29T08:21:02;6.90;;;1.43;;
14076;SDS011;7114;51.100;13.998;2022-12-29T08:23:30;6.38;;;1.55;;
14076;SDS011;7114;51.100;13.998;2022-12-29T08:25:57;6.45;;;1.20;;
14076;SDS011;7114;51.100;13.998;2022-12-29T08:28:23;6.15;;;1.02;;
14076;SDS011;7114;51.100;13.998;2022-12-29T08:30:50;7.28;;;1.20;;
14076;SDS011;7114;51.100;13.998;2022-12-29T08:33:16;7.30;;;1.40;;
14076;SDS011;7114;51.100;13.998;2022-12-29T08:35:42;5.05;;;1.10;;
14076;SDS011;7114;51.100;13.998;2022-12-29T08:38:08;5.55;;;1.27;;
14076;SDS011;7114;51.100;13.998;2022-12-29T08:40:37;6.05;;;1.20;;
14076;SDS011;7114;51.100;13.998;2022-12-29T08:43:03;5.80;;;1.63;;
14076;SDS011;7114;51.100;13.998;2022-12-29T08:45:30;5.07;;;0.93;;
14076;SDS011;7114;51.100;13.998;2022-12-29T08:47:57;4.93;;;0.80;;
14076;SDS011;7114;51.100;13.998;2022-12-29T08:50:23;5.30;;;1.00;;
14076;SDS011;7114;51.100;13.998;2022-12-29T08:52:49;4.75;;;0.90;;
14076;SDS011;7114;51.100;13.998;2022-12-29T08:55:16;4.93;;;0.90;;
14076;SDS011;7114;51.100;13.998;2022-12-29T08:57:43;5.87;;;0.90;;
14076;SDS011;7114;51.100;13.998;2022-12-29T09:00:10;5.43;;;1.08;;
14076;SDS011;7114;51.100;13.998;2022-12-29T09:02:37;4.80;;;0.98;;
14076;SDS011;7114;51.100;13.998;2022-12-29T09:05:03;6.10;;;0.70;;
14076;SDS011;7114;51.100;13.998;2022-12-29T09:07:30;5.05;;;0.90;;
14076;SDS011;7114;51.100;13.998;2022-12-29T09:09:56;6.20;;;0.87;;
14076;SDS011;7114;51.100;13.998;2022-12-29T09:12:23;4.85;;;0.90;;
14076;SDS011;7114;51.100;13.998;2022-12-29T09:14:50;6.15;;;0.90;;
14076;SDS011;7114;51.100;13.998;2022-12-29T09:17:16;5.03;;;0.90;;
14076;SDS011;7114;51.100;13.998;2022-12-29T09:20:00;6.63;;;1.10;;
14076;SDS011;7114;51.100;13.998;2022-12-29T09:22:27;7.33;;;1.00;;
14076;SDS011;7114;51.100;13.998;2022-12-29T09:24:53;5.30;;;1.17;;
14076;SDS011;7114;51.100;13.998;2022-12-29T09:27:19;6.72;;;1.15;;
14076;SDS011;7114;51.100;13.998;2022-12-29T09:29:46;5.43;;;1.30;;
14076;SDS011;7114;51.100;13.998;2022-12-29T09:32:13;6.13;;;1.10;;
14076;SDS011;7114;51.100;13.998;2022-12-29T09:34:40;6.07;;;1.00;;
14076;SDS011;7114;51.100;13.998;2022-12-29T09:37:06;6.63;;;1.40;;
14076;SDS011;7114;51.100;13.998;2022-12-29T09:39:32;5.50;;;1.20;;
14076;SDS011;7114;51.100;13.998;2022-12-29T09:42:00;6.38;;;1.00;;
14076;SDS011;7114;51.100;13.998;2022-12-29T09:44:31;7.28;;;1.13;;
14076;SDS011;7114;51.100;13.998;2022-12-29T09:47:08;6.10;;;1.00;;
14076;SDS011;7114;51.100;13.998;2022-12-29T09:49:38;5.30;;;1.40;;
14076;SDS011;7114;51.100;13.998;2022-12-29T09:52:10;5.22;;;1.00;;
14076;SDS011;7114;51.100;13.998;2022-12-29T09:54:40;6.40;;;1.10;;
14076;SDS011;7114;51.100;13.998;2022-12-29T09:57:12;5.43;;;1.05;;
14076;SDS011;7114;51.100;13.998;2022-12-29T09:59:42;5.40;;;0.80;;
14076;SDS011;7114;51.100;13.998;2022-12-29T10:02:12;6.43;;;1.00;;
14076;SDS011;7114;51.100;13.998;2022-12-29T10:04:48;4.80;;;0.90;;
14076;SDS011;7114;51.100;13.998;2022-12-29T10:07:16;3.85;;;0.70;;
14076;SDS011;7114;51.100;13.998;2022-12-29T10:09:53;5.00;;;1.17;;
14076;SDS011;7114;51.100;13.998;2022-12-29T10:12:26;4.93;;;0.80;;
14076;SDS011;7114;51.100;13.998;2022-12-29T10:14:58;5.43;;;0.90;;
14076;SDS011;7114;51.100;13.998;2022-12-29T10:17:31;5.20;;;0.98;;
14076;SDS011;7114;51.100;13.998;2022-12-29T10:20:07;5.95;;;1.13;;
14076;SDS011;7114;51.100;13.998;2022-12-29T10:22:45;4.93;;;0.90;;
14076;SDS011;7114;51.100;13.998;2022-12-29T10:25:22;5.20;;;1.10;;
14076;SDS011;7114;51.100;13.998;2022-12-29T10:27:50;5.68;;;0.90;;
14076;SDS011;7114;51.100;13.998;2022-12-29T10:30:17;5.30;;;0.90;;
14076;SDS011;7114;51.100;13.998;2022-12-29T10:32:45;4.90;;;0.90;;
14076;SDS011;7114;51.100;13.998;2022-12-29T10:35:15;5.30;;;0.70;;
14076;SDS011;7114;51.100;13.998;2022-12-29T10:37:45;6.80;;;1.00;;
14076;SDS011;7114;51.100;13.998;2022-12-29T10:40:16;6.65;;;1.30;;
14076;SDS011;7114;51.100;13.998;2022-12-29T10:42:47;4.82;;;0.80;;
14076;SDS011;7114;51.100;13.998;2022-12-29T10:45:19;5.22;;;0.80;;
14076;SDS011;7114;51.100;13.998;2022-12-29T10:47:50;4.80;;;0.70;;
14076;SDS011;7114;51.100;13.998;2022-12-29T10:50:20;4.73;;;0.83;;
14076;SDS011;7114;51.100;13.998;2022-12-29T10:52:46;5.13;;;0.90;;
14076;SDS011;7114;51.100;13.998;2022-12-29T10:55:15;5.90;;;1.30;;
14076;SDS011;7114;51.100;13.998;2022-12-29T10:57:44;5.55;;;0.93;;
14076;SDS011;7114;51.100;13.998;2022-12-29T11:00:11;4.57;;;0.80;;
14076;SDS011;7114;51.100;13.998;2022-12-29T11:02:54;5.47;;;0.93;;
14076;SDS011;7114;51.100;13.998;2022-12-29T11:05:39;5.93;;;0.98;;
14076;SDS011;7114;51.100;13.998;2022-12-29T11:08:08;5.40;;;1.00;;
14076;SDS011;7114;51.100;13.998;2022-12-29T11:10:37;5.80;;;1.10;;
14076;SDS011;7114;51.100;13.998;2022-12-29T11:13:10;5.53;;;1.20;;
14076;SDS011;7114;51.100;13.998;2022-12-29T11:15:38;6.03;;;1.00;;
14076;SDS011;7114;51.100;13.998;2022-12-29T11:18:08;6.35;;;1.60;;
14076;SDS011;7114;51.100;13.998;2022-12-29T11:20:45;7.95;;;1.00;;
14076;SDS011;7114;51.100;13.998;2022-12-29T11:23:21;6.15;;;1.10;;
14076;SDS011;7114;51.100;13.998;2022-12-29T11:25:56;5.95;;;0.95;;
14076;SDS011;7114;51.100;13.998;2022-12-29T11:28:31;5.30;;;0.90;;
14076;SDS011;7114;51.100;13.998;2022-12-29T11:30:58;5.75;;;0.90;;
14076;SDS011;7114;51.100;13.998;2022-12-29T11:33:27;5.10;;;0.80;;
14076;SDS011;7114;51.100;13.998;2022-12-29T11:35:56;4.95;;;0.90;;
14076;SDS011;7114;51.100;13.998;2022-12-29T11:38:26;4.95;;;1.02;;
14076;SDS011;7114;51.100;13.998;2022-12-29T11:40:57;4.97;;;1.00;;
14076;SDS011;7114;51.100;13.998;2022-12-29T11:43:25;5.00;;;0.80;;
14076;SDS011;7114;51.100;13.998;2022-12-29T11:45:58;4.82;;;0.80;;
14076;SDS011;7114;51.100;13.998;2022-12-29T11:48:24;5.00;;;0.80;;
14076;SDS011;7114;51.100;13.998;2022-12-29T11:50:57;5.22;;;0.80;;
14076;SDS011;7114;51.100;13.998;2022-12-29T11:53:25;6.33;;;1.07;;
14076;SDS011;7114;51.100;13.998;2022-12-29T11:55:52;5.28;;;0.80;;
14076;SDS011;7114;51.100;13.998;2022-12-29T11:58:20;4.97;;;0.70;;
14076;SDS011;7114;51.100;13.998;2022-12-29T12:00:46;4.97;;;0.90;;
14076;SDS011;7114;51.100;13.998;2022-12-29T12:03:16;4.50;;;0.90;;
14076;SDS011;7114;51.100;13.998;2022-12-29T12:05:45;4.83;;;0.80;;
14076;SDS011;7114;51.100;13.998;2022-12-29T12:08:19;5.10;;;0.95;;
14076;SDS011;7114;51.100;13.998;2022-12-29T12:10:50;4.95;;;1.00;;
14076;SDS011;7114;51.100;13.998;2022-12-29T12:13:20;5.03;;;0.95;;
14076;SDS011;7114;51.100;13.998;2022-12-29T12:15:50;5.13;;;0.90;;
14076;SDS011;7114;51.100;13.998;2022-12-29T12:18:21;5.13;;;1.00;;
14076;SDS011;7114;51.100;13.998;2022-12-29T12:21:00;5.63;;;0.90;;
14076;SDS011;7114;51.100;13.998;2022-12-29T12:23:35;6.68;;;1.10;;
14076;SDS011;7114;51.100;13.998;2022-12-29T12:26:09;5.43;;;0.90;;
14076;SDS011;7114;51.100;13.998;2022-12-29T12:28:39;6.15;;;1.00;;
14076;SDS011;7114;51.100;13.998;2022-12-29T12:31:12;5.23;;;0.80;;
14076;SDS011;7114;51.100;13.998;2022-12-29T12:33:44;5.57;;;0.90;;
14076;SDS011;7114;51.100;13.998;2022-12-29T12:36:16;5.75;;;1.10;;
14076;SDS011;7114;51.100;13.998;2022-12-29T12:38:51;5.90;;;1.20;;
14076;SDS011;7114;51.100;13.998;2022-12-29T12:41:22;5.80;;;1.33;;
14076;SDS011;7114;51.100;13.998;2022-12-29T12:43:55;5.80;;;1.40;;
14076;SDS011;7114;51.100;13.998;2022-12-29T12:46:37;6.35;;;1.50;;
14076;SDS011;7114;51.100;13.998;2022-12-29T12:52:13;7.18;;;1.63;;
14076;SDS011;7114;51.100;13.998;2022-12-29T12:54:49;5.68;;;1.52;;
14076;SDS011;7114;51.100;13.998;2022-12-29T12:57:28;5.07;;;1.03;;
14076;SDS011;7114;51.100;13.998;2022-12-29T13:00:03;4.97;;;1.10;;
14076;SDS011;7114;51.100;13.998;2022-12-29T13:02:40;5.38;;;0.85;;
14076;SDS011;7114;51.100;13.998;2022-12-29T13:05:20;6.25;;;1.08;;
14076;SDS011;7114;51.100;13.998;2022-12-29T13:07:55;5.68;;;0.90;;
14076;SDS011;7114;51.100;13.998;2022-12-29T13:10:35;5.67;;;1.10;;
14076;SDS011;7114;51.100;13.998;2022-12-29T13:13:27;6.13;;;0.90;;
14076;SDS011;7114;51.100;13.998;2022-12-29T13:16:01;5.20;;;0.65;;
14076;SDS011;7114;51.100;13.998;2022-12-29T13:18:32;6.25;;;0.80;;
14076;SDS011;7114;51.100;13.998;2022-12-29T13:21:04;4.10;;;0.60;;
14076;SDS011;7114;51.100;13.998;2022-12-29T13:23:34;4.40;;;0.70;;
14076;SDS011;7114;51.100;13.998;2022-12-29T13:26:08;3.97;;;0.50;;
14076;SDS011;7114;51.100;13.998;2022-12-29T13:28:41;4.78;;;0.70;;
14076;SDS011;7114;51.100;13.998;2022-12-29T13:31:15;5.43;;;0.63;;
14076;SDS011;7114;51.100;13.998;2022-12-29T13:33:46;4.70;;;0.70;;
14076;SDS011;7114;51.100;13.998;2022-12-29T13:36:18;4.30;;;0.70;;
14076;SDS011;7114;51.100;13.998;2022-12-29T13:38:48;4.70;;;0.77;;
14076;SDS011;7114;51.100;13.998;2022-12-29T13:41:21;4.45;;;0.70;;
14076;SDS011;7114;51.100;13.998;2022-12-29T13:43:51;5.90;;;1.05;;
14076;SDS011;7114;51.100;13.998;2022-12-29T13:46:20;5.20;;;0.75;;
14076;SDS011;7114;51.100;13.998;2022-12-29T13:48:49;5.50;;;1.40;;
14076;SDS011;7114;51.100;13.998;2022-12-29T13:51:17;5.20;;;1.08;;
14076;SDS011;7114;51.100;13.998;2022-12-29T13:53:51;6.88;;;1.10;;
14076;SDS011;7114;51.100;13.998;2022-12-29T13:56:25;5.95;;;1.17;;
14076;SDS011;7114;51.100;13.998;2022-12-29T13:58:58;5.45;;;1.33;;
14076;SDS011;7114;51.100;13.998;2022-12-29T14:01:31;5.10;;;1.10;;
14076;SDS011;7114;51.100;13.998;2022-12-29T14:04:00;4.47;;;0.98;;
14076;SDS011;7114;51.100;13.998;2022-12-29T14:06:28;4.60;;;0.73;;
14076;SDS011;7114;51.100;13.998;2022-12-29T14:08:56;5.13;;;0.80;;
14076;SDS011;7114;51.100;13.998;2022-12-29T14:11:28;5.72;;;1.05;;
14076;SDS011;7114;51.100;13.998;2022-12-29T14:13:57;5.23;;;1.10;;
14076;SDS011;7114;51.100;13.998;2022-12-29T14:16:26;5.68;;;1.00;;
14076;SDS011;7114;51.100;13.998;2022-12-29T14:18:54;5.93;;;1.75;;
14076;SDS011;7114;51.100;13.998;2022-12-29T14:21:23;5.97;;;1.50;;
14076;SDS011;7114;51.100;13.998;2022-12-29T14:23:53;5.55;;;1.30;;
14076;SDS011;7114;51.100;13.998;2022-12-29T14:26:34;5.17;;;0.80;;
14076;SDS011;7114;51.100;13.998;2022-12-29T14:35:36;5.35;;;0.82;;
14076;SDS011;7114;51.100;13.998;2022-12-29T14:38:19;5.50;;;0.80;;
14076;SDS011;7114;51.100;13.998;2022-12-29T14:43:51;4.75;;;0.85;;
14076;SDS011;7114;51.100;13.998;2022-12-29T14:46:23;4.45;;;0.65;;
14076;SDS011;7114;51.100;13.998;2022-12-29T14:48:54;4.35;;;0.60;;
14076;SDS011;7114;51.100;13.998;2022-12-29T14:51:27;4.20;;;0.88;;
14076;SDS011;7114;51.100;13.998;2022-12-29T14:53:58;5.87;;;0.70;;
14076;SDS011;7114;51.100;13.998;2022-12-29T14:56:25;5.40;;;0.90;;
14076;SDS011;7114;51.100;13.998;2022-12-29T14:58:52;4.80;;;0.70;;
14076;SDS011;7114;51.100;13.998;2022-12-29T15:01:22;5.97;;;0.93;;
14076;SDS011;7114;51.100;13.998;2022-12-29T15:03:51;5.32;;;1.00;;
14076;SDS011;7114;51.100;13.998;2022-12-29T15:06:28;5.93;;;1.03;;
14076;SDS011;7114;51.100;13.998;2022-12-29T15:08:56;5.70;;;0.95;;
14076;SDS011;7114;51.100;13.998;2022-12-29T15:11:31;5.85;;;1.00;;
14076;SDS011;7114;51.100;13.998;2022-12-29T15:16:57;5.05;;;0.90;;
14076;SDS011;7114;51.100;13.998;2022-12-29T15:19:23;5.47;;;0.97;;